sensor_id;sensor_type;location;lat;lon;timestamp;P1;durP1;ratioP1;P2;durP2;ratioP2
28862;SDS011;15994;51.796;13.006;2022-12-07T00:01:12;17.25;;;9.45;;
28862;SDS011;15994;51.796;13.006;2022-12-07T00:03:41;17.23;;;9.57;;
28862;SDS011;15994;51.796;13.006;2022-12-07T00:06:10;14.73;;;9.15;;
28862;SDS011;15994;51.796;13.006;2022-12-07T00:08:38;12.50;;;7.80;;
28862;SDS011;15994;51.796;13.006;2022-12-07T00:11:06;12.07;;;8.25;;
28862;SDS011;15994;51.796;13.006;2022-12-07T00:13:35;12.75;;;8.45;;
28862;SDS011;15994;51.796;13.006;2022-12-07T00:16:06;14.88;;;8.05;;
28862;SDS011;15994;51.796;13.006;2022-12-07T00:18:38;13.27;;;8.35;;
28862;SDS011;15994;51.796;13.006;2022-12-07T00:21:06;12.45;;;7.80;;
28862;SDS011;15994;51.796;13.006;2022-12-07T00:23:38;12.30;;;7.78;;
28862;SDS011;15994;51.796;13.006;2022-12-07T00:26:12;13.38;;;7.90;;
28862;SDS011;15994;51.796;13.006;2022-12-07T00:28:40;13.20;;;7.70;;
28862;SDS011;15994;51.796;13.006;2022-12-07T00:31:08;11.73;;;6.90;;
28862;SDS011;15994;51.796;13.006;2022-12-07T00:33:37;11.45;;;7.68;;
28862;SDS011;15994;51.796;13.006;2022-12-07T00:36:05;12.55;;;7.72;;
28862;SDS011;15994;51.796;13.006;2022-12-07T00:38:35;12.70;;;7.60;;
28862;SDS011;15994;51.796;13.006;2022-12-07T00:41:03;14.75;;;8.05;;
28862;SDS011;15994;51.796;13.006;2022-12-07T00:43:31;13.07;;;8.18;;
28862;SDS011;15994;51.796;13.006;2022-12-07T00:45:58;14.68;;;8.55;;
28862;SDS011;15994;51.796;13.006;2022-12-07T00:48:25;15.23;;;8.90;;
28862;SDS011;15994;51.796;13.006;2022-12-07T00:50:52;15.98;;;9.35;;
28862;SDS011;15994;51.796;13.006;2022-12-07T00:53:19;16.10;;;8.85;;
28862;SDS011;15994;51.796;13.006;2022-12-07T00:55:45;17.02;;;9.35;;
28862;SDS011;15994;51.796;13.006;2022-12-07T00:58:12;15.98;;;9.38;;
28862;SDS011;15994;51.796;13.006;2022-12-07T01:00:40;13.60;;;9.38;;
28862;SDS011;15994;51.796;13.006;2022-12-07T01:03:08;16.15;;;9.35;;
28862;SDS011;15994;51.796;13.006;2022-12-07T01:05:37;15.70;;;9.52;;
28862;SDS011;15994;51.796;13.006;2022-12-07T01:08:05;16.55;;;9.57;;
28862;SDS011;15994;51.796;13.006;2022-12-07T01:10:33;15.18;;;9.18;;
28862;SDS011;15994;51.796;13.006;2022-12-07T01:13:00;15.70;;;9.38;;
28862;SDS011;15994;51.796;13.006;2022-12-07T01:15:26;16.38;;;9.65;;
28862;SDS011;15994;51.796;13.006;2022-12-07T01:17:53;15.30;;;9.73;;
28862;SDS011;15994;51.796;13.006;2022-12-07T01:20:20;16.92;;;11.02;;
28862;SDS011;15994;51.796;13.006;2022-12-07T01:22:47;16.25;;;9.70;;
28862;SDS011;15994;51.796;13.006;2022-12-07T01:25:14;16.67;;;9.65;;
28862;SDS011;15994;51.796;13.006;2022-12-07T01:27:41;16.08;;;9.95;;
28862;SDS011;15994;51.796;13.006;2022-12-07T01:30:07;16.27;;;9.55;;
28862;SDS011;15994;51.796;13.006;2022-12-07T01:32:36;18.30;;;9.85;;
28862;SDS011;15994;51.796;13.006;2022-12-07T01:35:02;16.13;;;9.55;;
28862;SDS011;15994;51.796;13.006;2022-12-07T01:37:33;16.67;;;9.73;;
28862;SDS011;15994;51.796;13.006;2022-12-07T01:40:04;17.40;;;9.18;;
28862;SDS011;15994;51.796;13.006;2022-12-07T01:42:33;17.02;;;9.52;;
28862;SDS011;15994;51.796;13.006;2022-12-07T01:48:00;19.17;;;11.18;;
28862;SDS011;15994;51.796;13.006;2022-12-07T01:50:27;18.67;;;11.02;;
28862;SDS011;15994;51.796;13.006;2022-12-07T01:52:56;19.58;;;11.55;;
28862;SDS011;15994;51.796;13.006;2022-12-07T01:55:25;21.98;;;11.32;;
28862;SDS011;15994;51.796;13.006;2022-12-07T01:57:53;20.17;;;12.30;;
28862;SDS011;15994;51.796;13.006;2022-12-07T02:00:21;20.42;;;11.63;;
28862;SDS011;15994;51.796;13.006;2022-12-07T02:05:25;23.45;;;12.95;;
28862;SDS011;15994;51.796;13.006;2022-12-07T02:07:54;23.48;;;12.50;;
28862;SDS011;15994;51.796;13.006;2022-12-07T02:10:27;24.45;;;13.25;;
28862;SDS011;15994;51.796;13.006;2022-12-07T02:12:56;23.95;;;13.88;;
28862;SDS011;15994;51.796;13.006;2022-12-07T02:15:34;21.30;;;10.97;;
28862;SDS011;15994;51.796;13.006;2022-12-07T02:18:16;27.60;;;14.00;;
28862;SDS011;15994;51.796;13.006;2022-12-07T02:20:57;29.98;;;14.55;;
28862;SDS011;15994;51.796;13.006;2022-12-07T02:31:55;31.55;;;14.88;;
28862;SDS011;15994;51.796;13.006;2022-12-07T02:34:33;31.35;;;16.92;;
28862;SDS011;15994;51.796;13.006;2022-12-07T02:37:09;34.10;;;17.23;;
28862;SDS011;15994;51.796;13.006;2022-12-07T02:39:44;34.75;;;17.48;;
28862;SDS011;15994;51.796;13.006;2022-12-07T02:42:25;36.75;;;18.25;;
28862;SDS011;15994;51.796;13.006;2022-12-07T02:44:57;38.10;;;18.67;;
28862;SDS011;15994;51.796;13.006;2022-12-07T02:47:26;38.58;;;19.33;;
28862;SDS011;15994;51.796;13.006;2022-12-07T02:49:55;36.15;;;18.70;;
28862;SDS011;15994;51.796;13.006;2022-12-07T02:52:22;40.30;;;19.52;;
28862;SDS011;15994;51.796;13.006;2022-12-07T02:54:48;38.80;;;20.98;;
28862;SDS011;15994;51.796;13.006;2022-12-07T03:00:06;37.95;;;19.35;;
28862;SDS011;15994;51.796;13.006;2022-12-07T03:05:27;38.00;;;19.30;;
28862;SDS011;15994;51.796;13.006;2022-12-07T03:10:58;37.58;;;19.17;;
28862;SDS011;15994;51.796;13.006;2022-12-07T03:13:37;36.40;;;19.83;;
28862;SDS011;15994;51.796;13.006;2022-12-07T03:16:15;36.05;;;19.50;;
28862;SDS011;15994;51.796;13.006;2022-12-07T03:18:56;37.87;;;18.97;;
28862;SDS011;15994;51.796;13.006;2022-12-07T03:21:27;33.47;;;17.55;;
28862;SDS011;15994;51.796;13.006;2022-12-07T03:23:58;34.20;;;18.63;;
28862;SDS011;15994;51.796;13.006;2022-12-07T03:26:31;36.42;;;19.38;;
28862;SDS011;15994;51.796;13.006;2022-12-07T03:29:01;35.10;;;18.50;;
28862;SDS011;15994;51.796;13.006;2022-12-07T03:31:33;39.25;;;18.85;;
28862;SDS011;15994;51.796;13.006;2022-12-07T03:34:16;33.70;;;18.17;;
28862;SDS011;15994;51.796;13.006;2022-12-07T03:36:53;34.53;;;19.10;;
28862;SDS011;15994;51.796;13.006;2022-12-07T03:39:24;35.53;;;18.27;;
28862;SDS011;15994;51.796;13.006;2022-12-07T03:41:59;34.90;;;18.67;;
28862;SDS011;15994;51.796;13.006;2022-12-07T03:44:29;34.08;;;19.25;;
28862;SDS011;15994;51.796;13.006;2022-12-07T03:47:07;35.95;;;19.63;;
28862;SDS011;15994;51.796;13.006;2022-12-07T03:52:56;32.17;;;18.65;;
28862;SDS011;15994;51.796;13.006;2022-12-07T03:55:29;31.15;;;19.30;;
28862;SDS011;15994;51.796;13.006;2022-12-07T03:58:00;31.77;;;19.02;;
28862;SDS011;15994;51.796;13.006;2022-12-07T04:00:30;32.50;;;19.65;;
28862;SDS011;15994;51.796;13.006;2022-12-07T04:02:57;33.28;;;19.25;;
28862;SDS011;15994;51.796;13.006;2022-12-07T04:05:24;33.42;;;20.02;;
28862;SDS011;15994;51.796;13.006;2022-12-07T04:07:51;34.63;;;19.27;;
28862;SDS011;15994;51.796;13.006;2022-12-07T04:10:18;32.20;;;19.35;;
28862;SDS011;15994;51.796;13.006;2022-12-07T04:12:44;33.05;;;20.00;;
28862;SDS011;15994;51.796;13.006;2022-12-07T04:15:11;33.35;;;19.98;;
28862;SDS011;15994;51.796;13.006;2022-12-07T04:17:38;34.13;;;20.48;;
28862;SDS011;15994;51.796;13.006;2022-12-07T04:20:05;32.28;;;19.15;;
28862;SDS011;15994;51.796;13.006;2022-12-07T04:22:32;32.15;;;20.00;;
28862;SDS011;15994;51.796;13.006;2022-12-07T04:24:59;32.03;;;19.45;;
28862;SDS011;15994;51.796;13.006;2022-12-07T04:27:25;32.70;;;20.00;;
28862;SDS011;15994;51.796;13.006;2022-12-07T04:29:52;34.75;;;20.02;;
28862;SDS011;15994;51.796;13.006;2022-12-07T04:32:20;33.70;;;20.00;;
28862;SDS011;15994;51.796;13.006;2022-12-07T04:34:47;37.72;;;21.00;;
28862;SDS011;15994;51.796;13.006;2022-12-07T04:37:14;33.22;;;20.05;;
28862;SDS011;15994;51.796;13.006;2022-12-07T04:39:41;33.58;;;20.80;;
28862;SDS011;15994;51.796;13.006;2022-12-07T04:42:09;33.67;;;19.85;;
28862;SDS011;15994;51.796;13.006;2022-12-07T04:44:37;34.03;;;19.80;;
28862;SDS011;15994;51.796;13.006;2022-12-07T04:47:04;34.13;;;19.73;;
28862;SDS011;15994;51.796;13.006;2022-12-07T04:49:31;34.53;;;20.13;;
28862;SDS011;15994;51.796;13.006;2022-12-07T04:51:57;32.75;;;19.30;;
28862;SDS011;15994;51.796;13.006;2022-12-07T04:54:24;34.08;;;20.67;;
28862;SDS011;15994;51.796;13.006;2022-12-07T04:56:51;33.92;;;19.50;;
28862;SDS011;15994;51.796;13.006;2022-12-07T04:59:18;31.42;;;19.50;;
28862;SDS011;15994;51.796;13.006;2022-12-07T05:01:46;33.20;;;19.55;;
28862;SDS011;15994;51.796;13.006;2022-12-07T05:04:13;33.03;;;19.63;;
28862;SDS011;15994;51.796;13.006;2022-12-07T05:06:40;32.90;;;20.17;;
28862;SDS011;15994;51.796;13.006;2022-12-07T05:09:07;34.45;;;19.90;;
28862;SDS011;15994;51.796;13.006;2022-12-07T05:11:34;36.97;;;20.67;;
28862;SDS011;15994;51.796;13.006;2022-12-07T05:14:05;34.95;;;20.42;;
28862;SDS011;15994;51.796;13.006;2022-12-07T05:16:37;32.00;;;19.52;;
28862;SDS011;15994;51.796;13.006;2022-12-07T05:19:05;33.58;;;20.10;;
28862;SDS011;15994;51.796;13.006;2022-12-07T05:21:32;36.45;;;20.63;;
28862;SDS011;15994;51.796;13.006;2022-12-07T05:23:59;36.88;;;20.27;;
28862;SDS011;15994;51.796;13.006;2022-12-07T05:26:25;36.30;;;21.23;;
28862;SDS011;15994;51.796;13.006;2022-12-07T05:28:53;33.78;;;20.20;;
28862;SDS011;15994;51.796;13.006;2022-12-07T05:31:21;40.05;;;21.33;;
28862;SDS011;15994;51.796;13.006;2022-12-07T05:33:49;34.63;;;20.73;;
28862;SDS011;15994;51.796;13.006;2022-12-07T05:36:15;36.08;;;20.73;;
28862;SDS011;15994;51.796;13.006;2022-12-07T05:38:42;36.97;;;21.42;;
28862;SDS011;15994;51.796;13.006;2022-12-07T05:41:09;36.58;;;20.60;;
28862;SDS011;15994;51.796;13.006;2022-12-07T05:43:53;37.72;;;20.75;;
28862;SDS011;15994;51.796;13.006;2022-12-07T05:46:21;36.22;;;20.00;;
28862;SDS011;15994;51.796;13.006;2022-12-07T05:49:00;36.15;;;20.77;;
28862;SDS011;15994;51.796;13.006;2022-12-07T05:51:27;32.53;;;19.33;;
28862;SDS011;15994;51.796;13.006;2022-12-07T05:53:54;32.55;;;20.27;;
28862;SDS011;15994;51.796;13.006;2022-12-07T05:56:21;35.38;;;19.90;;
28862;SDS011;15994;51.796;13.006;2022-12-07T05:58:47;33.17;;;19.25;;
28862;SDS011;15994;51.796;13.006;2022-12-07T06:01:32;34.72;;;19.25;;
28862;SDS011;15994;51.796;13.006;2022-12-07T06:03:58;31.05;;;18.98;;
28862;SDS011;15994;51.796;13.006;2022-12-07T06:06:25;34.58;;;19.35;;
28862;SDS011;15994;51.796;13.006;2022-12-07T06:08:53;31.05;;;18.70;;
28862;SDS011;15994;51.796;13.006;2022-12-07T06:11:19;32.85;;;19.50;;
28862;SDS011;15994;51.796;13.006;2022-12-07T06:14:03;34.50;;;19.90;;
28862;SDS011;15994;51.796;13.006;2022-12-07T06:16:30;37.28;;;21.02;;
28862;SDS011;15994;51.796;13.006;2022-12-07T06:18:56;32.58;;;18.58;;
28862;SDS011;15994;51.796;13.006;2022-12-07T06:21:23;30.88;;;18.73;;
28862;SDS011;15994;51.796;13.006;2022-12-07T06:23:51;33.33;;;19.65;;
28862;SDS011;15994;51.796;13.006;2022-12-07T06:26:18;33.50;;;19.55;;
28862;SDS011;15994;51.796;13.006;2022-12-07T06:28:45;29.17;;;18.23;;
28862;SDS011;15994;51.796;13.006;2022-12-07T06:31:12;30.25;;;17.77;;
28862;SDS011;15994;51.796;13.006;2022-12-07T06:33:38;32.15;;;18.70;;
28862;SDS011;15994;51.796;13.006;2022-12-07T06:36:05;30.02;;;18.70;;
28862;SDS011;15994;51.796;13.006;2022-12-07T06:38:32;29.63;;;17.95;;
28862;SDS011;15994;51.796;13.006;2022-12-07T06:40:59;33.00;;;19.35;;
28862;SDS011;15994;51.796;13.006;2022-12-07T06:45:55;31.50;;;19.42;;
28862;SDS011;15994;51.796;13.006;2022-12-07T06:48:22;31.65;;;18.67;;
28862;SDS011;15994;51.796;13.006;2022-12-07T06:50:48;32.00;;;18.95;;
28862;SDS011;15994;51.796;13.006;2022-12-07T06:53:15;31.67;;;18.90;;
28862;SDS011;15994;51.796;13.006;2022-12-07T06:55:42;32.00;;;18.15;;
28862;SDS011;15994;51.796;13.006;2022-12-07T06:58:08;29.13;;;18.02;;
28862;SDS011;15994;51.796;13.006;2022-12-07T07:00:35;31.85;;;18.35;;
28862;SDS011;15994;51.796;13.006;2022-12-07T07:03:01;27.42;;;17.70;;
28862;SDS011;15994;51.796;13.006;2022-12-07T07:05:28;31.60;;;18.08;;
28862;SDS011;15994;51.796;13.006;2022-12-07T07:07:56;30.23;;;18.48;;
28862;SDS011;15994;51.796;13.006;2022-12-07T07:10:22;32.75;;;18.90;;
28862;SDS011;15994;51.796;13.006;2022-12-07T07:12:49;31.73;;;18.70;;
28862;SDS011;15994;51.796;13.006;2022-12-07T07:15:15;32.65;;;19.35;;
28862;SDS011;15994;51.796;13.006;2022-12-07T07:17:43;29.42;;;18.60;;
28862;SDS011;15994;51.796;13.006;2022-12-07T07:20:10;27.38;;;17.33;;
28862;SDS011;15994;51.796;13.006;2022-12-07T07:22:37;29.40;;;17.75;;
28862;SDS011;15994;51.796;13.006;2022-12-07T07:25:04;32.00;;;18.63;;
28862;SDS011;15994;51.796;13.006;2022-12-07T07:27:31;33.15;;;18.70;;
28862;SDS011;15994;51.796;13.006;2022-12-07T07:29:58;29.00;;;18.00;;
28862;SDS011;15994;51.796;13.006;2022-12-07T07:32:25;28.10;;;17.88;;
28862;SDS011;15994;51.796;13.006;2022-12-07T07:34:58;29.08;;;17.98;;
28862;SDS011;15994;51.796;13.006;2022-12-07T07:37:25;28.00;;;18.05;;
28862;SDS011;15994;51.796;13.006;2022-12-07T07:39:52;27.63;;;17.50;;
28862;SDS011;15994;51.796;13.006;2022-12-07T07:42:18;27.00;;;17.70;;
28862;SDS011;15994;51.796;13.006;2022-12-07T07:44:46;29.20;;;17.95;;
28862;SDS011;15994;51.796;13.006;2022-12-07T07:47:13;30.55;;;18.75;;
28862;SDS011;15994;51.796;13.006;2022-12-07T07:49:39;26.95;;;17.05;;
28862;SDS011;15994;51.796;13.006;2022-12-07T07:52:06;26.23;;;17.25;;
28862;SDS011;15994;51.796;13.006;2022-12-07T07:54:33;25.80;;;16.88;;
28862;SDS011;15994;51.796;13.006;2022-12-07T07:57:00;26.27;;;17.00;;
28862;SDS011;15994;51.796;13.006;2022-12-07T07:59:27;25.48;;;15.63;;
28862;SDS011;15994;51.796;13.006;2022-12-07T08:01:55;26.40;;;15.93;;
28862;SDS011;15994;51.796;13.006;2022-12-07T08:04:21;24.23;;;16.17;;
28862;SDS011;15994;51.796;13.006;2022-12-07T08:06:48;25.23;;;15.98;;
28862;SDS011;15994;51.796;13.006;2022-12-07T08:09:14;26.38;;;15.98;;
28862;SDS011;15994;51.796;13.006;2022-12-07T08:11:41;26.73;;;16.70;;
28862;SDS011;15994;51.796;13.006;2022-12-07T08:14:09;26.17;;;16.48;;
28862;SDS011;15994;51.796;13.006;2022-12-07T08:16:37;25.33;;;15.63;;
28862;SDS011;15994;51.796;13.006;2022-12-07T08:19:06;25.80;;;15.98;;
28862;SDS011;15994;51.796;13.006;2022-12-07T08:21:33;25.60;;;16.20;;
28862;SDS011;15994;51.796;13.006;2022-12-07T08:24:00;26.88;;;15.52;;
28862;SDS011;15994;51.796;13.006;2022-12-07T08:26:28;27.05;;;15.52;;
28862;SDS011;15994;51.796;13.006;2022-12-07T08:28:55;22.55;;;15.27;;
28862;SDS011;15994;51.796;13.006;2022-12-07T08:31:22;25.00;;;14.68;;
28862;SDS011;15994;51.796;13.006;2022-12-07T08:33:48;25.42;;;14.88;;
28862;SDS011;15994;51.796;13.006;2022-12-07T08:36:15;22.38;;;13.65;;
28862;SDS011;15994;51.796;13.006;2022-12-07T08:38:43;23.23;;;14.23;;
28862;SDS011;15994;51.796;13.006;2022-12-07T08:41:10;22.33;;;13.63;;
28862;SDS011;15994;51.796;13.006;2022-12-07T08:43:36;26.30;;;13.80;;
28862;SDS011;15994;51.796;13.006;2022-12-07T08:46:05;25.95;;;14.18;;
28862;SDS011;15994;51.796;13.006;2022-12-07T08:48:38;20.95;;;13.20;;
28862;SDS011;15994;51.796;13.006;2022-12-07T08:51:10;23.70;;;13.40;;
28862;SDS011;15994;51.796;13.006;2022-12-07T08:53:37;23.55;;;13.50;;
28862;SDS011;15994;51.796;13.006;2022-12-07T08:56:05;21.50;;;13.32;;
28862;SDS011;15994;51.796;13.006;2022-12-07T08:58:33;18.88;;;12.05;;
28862;SDS011;15994;51.796;13.006;2022-12-07T09:01:01;20.92;;;12.25;;
28862;SDS011;15994;51.796;13.006;2022-12-07T09:03:28;20.70;;;11.90;;
28862;SDS011;15994;51.796;13.006;2022-12-07T09:05:54;15.93;;;11.13;;
28862;SDS011;15994;51.796;13.006;2022-12-07T09:08:22;20.23;;;11.18;;
28862;SDS011;15994;51.796;13.006;2022-12-07T09:10:52;22.48;;;11.35;;
28862;SDS011;15994;51.796;13.006;2022-12-07T09:13:19;16.95;;;10.43;;
28862;SDS011;15994;51.796;13.006;2022-12-07T09:15:45;19.80;;;11.35;;
28862;SDS011;15994;51.796;13.006;2022-12-07T09:18:12;20.15;;;11.20;;
28862;SDS011;15994;51.796;13.006;2022-12-07T09:20:39;16.95;;;10.82;;
28862;SDS011;15994;51.796;13.006;2022-12-07T09:23:07;17.83;;;11.13;;
28862;SDS011;15994;51.796;13.006;2022-12-07T09:25:34;21.38;;;10.80;;
28862;SDS011;15994;51.796;13.006;2022-12-07T09:28:01;18.55;;;10.90;;
28862;SDS011;15994;51.796;13.006;2022-12-07T09:30:28;17.90;;;10.68;;
28862;SDS011;15994;51.796;13.006;2022-12-07T09:32:55;18.88;;;10.88;;
28862;SDS011;15994;51.796;13.006;2022-12-07T09:35:23;18.45;;;11.23;;
28862;SDS011;15994;51.796;13.006;2022-12-07T09:37:50;21.25;;;10.80;;
28862;SDS011;15994;51.796;13.006;2022-12-07T09:40:18;18.15;;;11.05;;
28862;SDS011;15994;51.796;13.006;2022-12-07T09:42:47;18.77;;;10.93;;
28862;SDS011;15994;51.796;13.006;2022-12-07T09:45:19;17.40;;;10.88;;
28862;SDS011;15994;51.796;13.006;2022-12-07T09:47:48;19.08;;;11.40;;
28862;SDS011;15994;51.796;13.006;2022-12-07T09:50:23;17.30;;;11.63;;
28862;SDS011;15994;51.796;13.006;2022-12-07T09:52:51;24.92;;;11.77;;
28862;SDS011;15994;51.796;13.006;2022-12-07T09:55:24;24.02;;;12.55;;
28862;SDS011;15994;51.796;13.006;2022-12-07T09:57:54;19.50;;;12.20;;
28862;SDS011;15994;51.796;13.006;2022-12-07T10:00:22;17.67;;;11.60;;
28862;SDS011;15994;51.796;13.006;2022-12-07T10:02:54;20.85;;;12.02;;
28862;SDS011;15994;51.796;13.006;2022-12-07T10:07:57;20.45;;;11.82;;
28862;SDS011;15994;51.796;13.006;2022-12-07T10:10:25;19.83;;;11.40;;
28862;SDS011;15994;51.796;13.006;2022-12-07T10:15:41;18.20;;;11.30;;
28862;SDS011;15994;51.796;13.006;2022-12-07T10:23:39;14.63;;;10.18;;
28862;SDS011;15994;51.796;13.006;2022-12-07T10:29:12;12.95;;;9.57;;
28862;SDS011;15994;51.796;13.006;2022-12-07T10:31:45;18.20;;;9.73;;
28862;SDS011;15994;51.796;13.006;2022-12-07T10:34:27;15.27;;;10.15;;
28862;SDS011;15994;51.796;13.006;2022-12-07T10:39:45;14.55;;;9.45;;
28862;SDS011;15994;51.796;13.006;2022-12-07T10:42:27;17.17;;;9.27;;
28862;SDS011;15994;51.796;13.006;2022-12-07T11:01:43;12.95;;;6.85;;
28862;SDS011;15994;51.796;13.006;2022-12-07T11:07:11;9.80;;;5.75;;
28862;SDS011;15994;51.796;13.006;2022-12-07T11:18:28;8.60;;;4.00;;
28862;SDS011;15994;51.796;13.006;2022-12-07T11:21:05;6.95;;;3.63;;
28862;SDS011;15994;51.796;13.006;2022-12-07T11:23:55;7.50;;;3.55;;
28862;SDS011;15994;51.796;13.006;2022-12-07T11:26:34;5.53;;;3.05;;
28862;SDS011;15994;51.796;13.006;2022-12-07T11:34:27;7.25;;;2.83;;
28862;SDS011;15994;51.796;13.006;2022-12-07T11:37:34;8.63;;;3.33;;
28862;SDS011;15994;51.796;13.006;2022-12-07T11:40:05;6.35;;;3.63;;
28862;SDS011;15994;51.796;13.006;2022-12-07T11:43:01;7.72;;;3.60;;
28862;SDS011;15994;51.796;13.006;2022-12-07T11:45:33;7.45;;;3.60;;
28862;SDS011;15994;51.796;13.006;2022-12-07T11:50:45;7.53;;;4.68;;
28862;SDS011;15994;51.796;13.006;2022-12-07T11:53:20;8.55;;;4.55;;
28862;SDS011;15994;51.796;13.006;2022-12-07T12:06:40;8.73;;;5.10;;
28862;SDS011;15994;51.796;13.006;2022-12-07T12:09:12;7.28;;;4.90;;
28862;SDS011;15994;51.796;13.006;2022-12-07T12:14:36;8.45;;;5.80;;
28862;SDS011;15994;51.796;13.006;2022-12-07T12:20:49;11.25;;;5.65;;
28862;SDS011;15994;51.796;13.006;2022-12-07T12:25:54;8.10;;;6.00;;
28862;SDS011;15994;51.796;13.006;2022-12-07T12:28:28;8.75;;;5.85;;
28862;SDS011;15994;51.796;13.006;2022-12-07T12:33:33;9.43;;;6.63;;
28862;SDS011;15994;51.796;13.006;2022-12-07T12:39:09;10.43;;;5.88;;
28862;SDS011;15994;51.796;13.006;2022-12-07T12:50:15;12.75;;;7.85;;
28862;SDS011;15994;51.796;13.006;2022-12-07T12:52:57;13.63;;;9.13;;
28862;SDS011;15994;51.796;13.006;2022-12-07T13:00:44;11.73;;;8.68;;
28862;SDS011;15994;51.796;13.006;2022-12-07T13:08:53;15.93;;;8.73;;
28862;SDS011;15994;51.796;13.006;2022-12-07T13:11:41;12.15;;;8.35;;
28862;SDS011;15994;51.796;13.006;2022-12-07T13:17:12;13.48;;;8.20;;
28862;SDS011;15994;51.796;13.006;2022-12-07T13:25:08;13.73;;;8.02;;
28862;SDS011;15994;51.796;13.006;2022-12-07T13:27:39;13.27;;;7.60;;
28862;SDS011;15994;51.796;13.006;2022-12-07T13:30:12;10.93;;;7.68;;
28862;SDS011;15994;51.796;13.006;2022-12-07T13:38:15;12.85;;;8.38;;
28862;SDS011;15994;51.796;13.006;2022-12-07T13:43:44;13.07;;;7.95;;
28862;SDS011;15994;51.796;13.006;2022-12-07T13:46:15;13.50;;;7.40;;
28862;SDS011;15994;51.796;13.006;2022-12-07T13:48:52;12.98;;;7.40;;
28862;SDS011;15994;51.796;13.006;2022-12-07T13:51:26;12.93;;;6.93;;
28862;SDS011;15994;51.796;13.006;2022-12-07T13:54:01;13.27;;;7.57;;
28862;SDS011;15994;51.796;13.006;2022-12-07T13:56:35;12.13;;;7.80;;
28862;SDS011;15994;51.796;13.006;2022-12-07T13:59:15;15.05;;;8.30;;
28862;SDS011;15994;51.796;13.006;2022-12-07T14:01:48;12.73;;;7.80;;
28862;SDS011;15994;51.796;13.006;2022-12-07T14:06:54;11.10;;;6.50;;
28862;SDS011;15994;51.796;13.006;2022-12-07T14:09:22;10.18;;;6.60;;
28862;SDS011;15994;51.796;13.006;2022-12-07T14:11:59;11.27;;;6.45;;
28862;SDS011;15994;51.796;13.006;2022-12-07T14:14:32;10.07;;;6.10;;
28862;SDS011;15994;51.796;13.006;2022-12-07T14:17:15;11.15;;;6.30;;
28862;SDS011;15994;51.796;13.006;2022-12-07T14:19:54;12.38;;;6.25;;
28862;SDS011;15994;51.796;13.006;2022-12-07T14:22:27;10.63;;;6.13;;
28862;SDS011;15994;51.796;13.006;2022-12-07T14:25:01;9.40;;;6.03;;
28862;SDS011;15994;51.796;13.006;2022-12-07T14:30:50;10.13;;;5.68;;
28862;SDS011;15994;51.796;13.006;2022-12-07T14:33:17;9.88;;;5.10;;
28862;SDS011;15994;51.796;13.006;2022-12-07T14:35:44;10.05;;;5.07;;
28862;SDS011;15994;51.796;13.006;2022-12-07T14:38:11;11.52;;;5.53;;
28862;SDS011;15994;51.796;13.006;2022-12-07T14:40:38;9.45;;;4.72;;
28862;SDS011;15994;51.796;13.006;2022-12-07T14:43:06;8.13;;;4.53;;
28862;SDS011;15994;51.796;13.006;2022-12-07T14:45:36;8.38;;;4.47;;
28862;SDS011;15994;51.796;13.006;2022-12-07T14:48:04;9.50;;;4.85;;
28862;SDS011;15994;51.796;13.006;2022-12-07T14:50:33;8.38;;;5.13;;
28862;SDS011;15994;51.796;13.006;2022-12-07T14:53:09;10.80;;;4.63;;
28862;SDS011;15994;51.796;13.006;2022-12-07T14:55:39;9.52;;;4.60;;
28862;SDS011;15994;51.796;13.006;2022-12-07T14:58:06;10.43;;;4.50;;
28862;SDS011;15994;51.796;13.006;2022-12-07T15:00:42;9.18;;;4.55;;
28862;SDS011;15994;51.796;13.006;2022-12-07T15:03:09;9.68;;;4.68;;
28862;SDS011;15994;51.796;13.006;2022-12-07T15:05:37;10.75;;;4.40;;
28862;SDS011;15994;51.796;13.006;2022-12-07T15:08:04;10.75;;;4.55;;
28862;SDS011;15994;51.796;13.006;2022-12-07T15:10:32;9.13;;;4.25;;
28862;SDS011;15994;51.796;13.006;2022-12-07T15:13:03;8.60;;;4.30;;
28862;SDS011;15994;51.796;13.006;2022-12-07T15:15:44;15.48;;;4.32;;
28862;SDS011;15994;51.796;13.006;2022-12-07T15:18:11;13.70;;;4.78;;
28862;SDS011;15994;51.796;13.006;2022-12-07T15:20:38;9.90;;;4.30;;
28862;SDS011;15994;51.796;13.006;2022-12-07T15:23:05;9.13;;;4.40;;
28862;SDS011;15994;51.796;13.006;2022-12-07T15:25:31;6.95;;;4.28;;
28862;SDS011;15994;51.796;13.006;2022-12-07T15:27:58;9.80;;;4.38;;
28862;SDS011;15994;51.796;13.006;2022-12-07T15:30:25;11.13;;;4.97;;
28862;SDS011;15994;51.796;13.006;2022-12-07T15:32:52;10.25;;;4.38;;
28862;SDS011;15994;51.796;13.006;2022-12-07T15:35:20;7.93;;;4.22;;
28862;SDS011;15994;51.796;13.006;2022-12-07T15:37:46;10.07;;;4.63;;
28862;SDS011;15994;51.796;13.006;2022-12-07T15:40:14;9.10;;;4.07;;
28862;SDS011;15994;51.796;13.006;2022-12-07T15:42:42;11.82;;;4.63;;
28862;SDS011;15994;51.796;13.006;2022-12-07T15:45:09;7.85;;;4.07;;
28862;SDS011;15994;51.796;13.006;2022-12-07T15:47:36;14.88;;;4.47;;
28862;SDS011;15994;51.796;13.006;2022-12-07T15:50:05;9.93;;;4.50;;
28862;SDS011;15994;51.796;13.006;2022-12-07T15:52:33;13.13;;;4.43;;
28862;SDS011;15994;51.796;13.006;2022-12-07T15:55:00;14.88;;;4.88;;
28862;SDS011;15994;51.796;13.006;2022-12-07T15:57:29;10.10;;;4.10;;
28862;SDS011;15994;51.796;13.006;2022-12-07T15:59:56;10.45;;;4.22;;
28862;SDS011;15994;51.796;13.006;2022-12-07T16:02:23;9.10;;;4.60;;
28862;SDS011;15994;51.796;13.006;2022-12-07T16:04:50;10.40;;;4.20;;
28862;SDS011;15994;51.796;13.006;2022-12-07T16:07:17;7.95;;;3.65;;
28862;SDS011;15994;51.796;13.006;2022-12-07T16:09:45;10.15;;;4.10;;
28862;SDS011;15994;51.796;13.006;2022-12-07T16:12:13;7.68;;;4.15;;
28862;SDS011;15994;51.796;13.006;2022-12-07T16:14:40;9.48;;;3.90;;
28862;SDS011;15994;51.796;13.006;2022-12-07T16:17:07;7.20;;;3.92;;
28862;SDS011;15994;51.796;13.006;2022-12-07T16:19:35;10.38;;;4.15;;
28862;SDS011;15994;51.796;13.006;2022-12-07T16:22:03;9.07;;;4.20;;
28862;SDS011;15994;51.796;13.006;2022-12-07T16:24:31;8.20;;;4.00;;
28862;SDS011;15994;51.796;13.006;2022-12-07T16:26:57;11.48;;;3.85;;
28862;SDS011;15994;51.796;13.006;2022-12-07T16:29:24;7.20;;;3.60;;
28862;SDS011;15994;51.796;13.006;2022-12-07T16:31:51;8.90;;;3.83;;
28862;SDS011;15994;51.796;13.006;2022-12-07T16:34:18;11.65;;;3.95;;
28862;SDS011;15994;51.796;13.006;2022-12-07T16:36:45;11.35;;;3.92;;
28862;SDS011;15994;51.796;13.006;2022-12-07T16:39:11;10.50;;;4.00;;
28862;SDS011;15994;51.796;13.006;2022-12-07T16:41:38;6.85;;;3.55;;
28862;SDS011;15994;51.796;13.006;2022-12-07T16:44:05;8.35;;;4.43;;
28862;SDS011;15994;51.796;13.006;2022-12-07T16:46:34;9.10;;;4.00;;
28862;SDS011;15994;51.796;13.006;2022-12-07T16:49:02;6.68;;;3.65;;
28862;SDS011;15994;51.796;13.006;2022-12-07T16:51:29;7.35;;;3.67;;
28862;SDS011;15994;51.796;13.006;2022-12-07T16:53:56;9.52;;;4.20;;
28862;SDS011;15994;51.796;13.006;2022-12-07T16:56:23;6.90;;;3.88;;
28862;SDS011;15994;51.796;13.006;2022-12-07T16:58:51;7.47;;;3.80;;